Time;durP1;ratioP1;P1;durP2;ratioP2;P2;SDS_P1;SDS_P2;PMS_P1;PMS_P2;Temp;Humidity;BMP_temperature;BMP_pressure;BME280_temperature;BME280_humidity;BME280_pressure;Samples;Min_cycle;Max_cycle;Signal;HPM_P1;HPM_P2
2022/09/10 00:00:42;;;;;;;12.52;2.60;;;15.10;99.90;;;;;;5031013;28;20112;-91
2022/09/10 00:03:08;;;;;;;7.00;2.05;;;15.10;99.90;;;;;;5028039;28;20084;-92
2022/09/10 00:05:42;;;;;;;6.82;2.88;;;15.10;99.90;;;;;;5016952;28;20145;-92
2022/09/10 00:08:09;;;;;;;9.73;3.25;;;15.20;99.90;;;;;;5029382;28;20064;-91
2022/09/10 00:10:42;;;;;;;9.48;2.97;;;15.20;99.90;;;;;;5030259;28;20049;-91
2022/09/10 00:13:09;;;;;;;7.95;2.92;;;15.20;99.90;;;;;;5006516;28;20030;-91
2022/09/10 00:15:44;;;;;;;9.15;3.88;;;15.30;99.90;;;;;;5014326;28;20022;-92
2022/09/10 00:18:11;;;;;;;20.23;4.30;;;15.20;99.90;;;;;;5032233;28;20508;-91
2022/09/10 00:20:48;;;;;;;9.35;3.53;;;15.30;99.90;;;;;;5021193;28;20046;-91
2022/09/10 00:23:14;;;;;;;10.90;4.28;;;15.30;99.90;;;;;;5030326;28;20026;-91
2022/09/10 00:25:41;;;;;;;11.68;4.20;;;15.30;99.90;;;;;;5029096;28;20022;-90
2022/09/10 00:28:07;;;;;;;13.18;4.65;;;15.30;99.90;;;;;;5028290;28;20052;-92
2022/09/10 00:30:40;;;;;;;11.23;4.95;;;15.30;99.90;;;;;;5024991;28;20021;-92
2022/09/10 00:33:05;;;;;;;12.15;4.88;;;15.30;99.90;;;;;;5032192;28;20026;-92
2022/09/10 00:35:32;;;;;;;10.63;4.65;;;15.30;99.90;;;;;;5024859;28;20042;-91
2022/09/10 00:37:57;;;;;;;11.93;5.47;;;15.30;99.90;;;;;;5032123;28;20052;-92
2022/09/10 00:40:23;;;;;;;12.65;5.70;;;15.30;99.90;;;;;;5027427;28;20068;-92
2022/09/10 00:42:48;;;;;;;12.45;5.85;;;15.30;99.90;;;;;;5029587;28;20036;-92
2022/09/10 00:45:20;;;;;;;14.02;6.20;;;15.40;99.90;;;;;;5009951;28;20473;-92
2022/09/10 00:47:49;;;;;;;21.40;8.83;;;15.30;99.90;;;;;;5014566;28;20528;-90
2022/09/10 00:50:24;;;;;;;13.05;6.55;;;15.30;99.90;;;;;;5016971;28;20025;-91
2022/09/10 00:52:53;;;;;;;12.55;7.03;;;15.40;99.90;;;;;;5033028;28;20047;-91
2022/09/10 00:55:20;;;;;;;13.98;7.10;;;15.30;99.90;;;;;;5016002;28;20124;-91
2022/09/10 00:57:49;;;;;;;12.35;8.20;;;15.40;99.90;;;;;;5016902;28;20087;-91
2022/09/10 01:00:15;;;;;;;20.17;8.63;;;15.40;99.90;;;;;;5029259;28;20035;-91
2022/09/10 01:02:41;;;;;;;15.50;8.82;;;15.40;99.90;;;;;;5034614;28;20040;-92
2022/09/10 01:05:08;;;;;;;15.13;8.32;;;15.40;99.90;;;;;;5013374;28;20021;-92
2022/09/10 01:07:35;;;;;;;14.63;8.80;;;15.40;99.90;;;;;;5029574;28;20485;-91
2022/09/10 01:10:25;;;;;;;15.02;8.85;;;15.40;99.90;;;;;;5027612;28;20069;-92
2022/09/10 01:13:29;;;;;;;20.40;9.45;;;15.40;99.90;;;;;;5029586;28;20025;-92
2022/09/10 01:16:17;;;;;;;14.65;8.75;;;15.50;99.90;;;;;;5025287;28;20126;-90
2022/09/10 01:18:50;;;;;;;17.88;9.68;;;15.40;99.90;;;;;;5016409;28;20021;-91
2022/09/10 01:21:19;;;;;;;14.57;10.07;;;15.40;99.90;;;;;;5029784;28;20057;-91
2022/09/10 01:24:14;;;;;;;17.33;10.10;;;15.40;99.90;;;;;;5007109;28;20021;-91
2022/09/10 01:27:01;;;;;;;19.70;10.50;;;15.40;99.90;;;;;;5024657;28;20049;-91
2022/09/10 01:29:35;;;;;;;19.38;9.82;;;15.40;99.90;;;;;;5029789;28;20033;-91
2022/09/10 01:32:47;;;;;;;18.75;9.73;;;15.40;99.90;;;;;;5023337;28;20116;-90
2022/09/10 01:35:21;;;;;;;16.33;9.95;;;15.40;99.90;;;;;;4979155;28;20026;-90
2022/09/10 01:37:53;;;;;;;15.38;9.43;;;15.40;99.90;;;;;;4987845;28;20026;-89
2022/09/10 01:40:23;;;;;;;14.80;9.48;;;15.40;99.90;;;;;;4991933;28;20049;-90
2022/09/10 01:42:49;;;;;;;22.15;9.80;;;15.40;99.90;;;;;;5031070;28;20062;-92
2022/09/10 01:45:15;;;;;;;14.98;9.52;;;15.40;99.90;;;;;;5013123;28;20029;-90
2022/09/10 01:48:05;;;;;;;16.77;9.95;;;15.40;99.90;;;;;;5025328;28;20134;-92
2022/09/10 01:50:42;;;;;;;17.77;9.93;;;15.40;99.90;;;;;;5027208;28;20032;-91
2022/09/10 01:53:38;;;;;;;19.20;9.90;;;15.40;99.90;;;;;;5011370;28;20049;-91
2022/09/10 01:56:11;;;;;;;16.23;10.00;;;15.50;99.90;;;;;;5032558;28;20113;-91
2022/09/10 01:58:40;;;;;;;17.90;9.43;;;15.40;99.90;;;;;;5009223;28;20105;-91
2022/09/10 02:01:28;;;;;;;15.60;9.13;;;15.50;99.90;;;;;;5031646;28;20041;-90
2022/09/10 02:04:00;;;;;;;18.00;9.00;;;15.50;99.90;;;;;;5027610;28;20068;-90
2022/09/10 02:06:29;;;;;;;18.13;9.63;;;15.50;99.90;;;;;;5029174;28;20030;-89
2022/09/10 02:08:57;;;;;;;16.50;9.27;;;15.50;99.90;;;;;;5032444;28;20018;-89
2022/09/10 02:11:23;;;;;;;17.88;10.07;;;15.50;99.90;;;;;;5015848;28;20029;-91
2022/09/10 02:13:49;;;;;;;17.40;9.52;;;15.50;99.90;;;;;;5014037;28;20018;-94
2022/09/10 02:16:27;;;;;;;19.10;10.05;;;15.40;99.90;;;;;;5029393;28;20057;-92
2022/09/10 02:18:54;;;;;;;18.10;9.25;;;15.40;99.90;;;;;;5027861;28;20562;-92
2022/09/10 02:21:19;;;;;;;13.45;9.95;;;15.40;99.90;;;;;;5017573;28;20088;-91
2022/09/10 02:23:48;;;;;;;19.55;10.75;;;15.40;99.90;;;;;;5033222;28;20034;-92
2022/09/10 02:26:14;;;;;;;15.93;9.93;;;15.40;99.90;;;;;;5006671;28;20458;-91
2022/09/10 02:28:44;;;;;;;18.17;10.82;;;15.40;99.90;;;;;;5033335;28;20061;-92
2022/09/10 02:31:10;;;;;;;17.45;10.40;;;15.40;99.90;;;;;;5025214;28;20034;-92
2022/09/10 02:33:36;;;;;;;16.90;10.52;;;15.40;99.90;;;;;;5029246;28;20021;-93
2022/09/10 02:36:02;;;;;;;16.45;10.02;;;15.30;99.90;;;;;;5007368;28;20085;-91
2022/09/10 02:38:28;;;;;;;19.77;10.85;;;15.30;99.90;;;;;;5023752;28;20080;-93
2022/09/10 02:40:55;;;;;;;15.23;9.63;;;15.30;99.90;;;;;;5003336;28;20045;-92
2022/09/10 02:43:20;;;;;;;19.55;11.00;;;15.30;99.90;;;;;;5023727;28;20112;-93
2022/09/10 02:45:46;;;;;;;20.15;11.23;;;15.30;99.90;;;;;;5033664;28;20080;-92
2022/09/10 02:48:12;;;;;;;16.80;11.02;;;15.30;99.90;;;;;;5019358;28;20107;-92
2022/09/10 02:50:37;;;;;;;16.42;11.00;;;15.30;99.90;;;;;;5015495;28;20036;-91
2022/09/10 02:53:03;;;;;;;17.73;11.55;;;15.30;99.90;;;;;;5031453;28;20061;-93
2022/09/10 02:55:30;;;;;;;17.77;12.70;;;15.30;99.90;;;;;;5028388;28;20025;-93
2022/09/10 02:57:57;;;;;;;17.35;11.98;;;15.30;99.90;;;;;;5030445;28;20021;-92
2022/09/10 03:00:23;;;;;;;23.92;12.40;;;15.30;99.90;;;;;;5018796;28;20037;-92
2022/09/10 03:02:49;;;;;;;23.55;12.50;;;15.30;99.90;;;;;;5018588;28;20060;-92
2022/09/10 03:05:15;;;;;;;19.88;11.93;;;15.30;99.90;;;;;;5030587;28;20033;-92
2022/09/10 03:07:42;;;;;;;19.48;11.63;;;15.30;99.90;;;;;;5026623;28;20034;-93
2022/09/10 03:10:08;;;;;;;23.50;12.85;;;15.30;99.90;;;;;;5032268;28;20057;-92
2022/09/10 03:12:33;;;;;;;20.02;12.45;;;15.40;99.90;;;;;;5036714;28;20037;-94
2022/09/10 03:14:59;;;;;;;20.02;11.73;;;15.40;99.90;;;;;;5036161;28;20029;-94
2022/09/10 03:17:25;;;;;;;21.98;12.30;;;15.40;99.90;;;;;;5035099;28;20099;-94
2022/09/10 03:19:50;;;;;;;27.67;14.55;;;15.40;99.90;;;;;;5014008;28;20064;-94
2022/09/10 03:22:16;;;;;;;19.80;12.70;;;15.40;99.90;;;;;;5012782;28;20073;-93
2022/09/10 03:24:42;;;;;;;23.90;12.98;;;15.40;99.90;;;;;;5019558;28;20025;-93
2022/09/10 03:27:08;;;;;;;22.45;13.32;;;15.50;99.90;;;;;;5005400;28;20034;-93
2022/09/10 03:29:35;;;;;;;20.02;14.18;;;15.50;99.90;;;;;;5035628;28;20547;-92
2022/09/10 03:32:01;;;;;;;22.38;14.63;;;15.50;99.90;;;;;;5034395;28;20034;-92
2022/09/10 03:34:26;;;;;;;21.70;14.02;;;15.50;99.90;;;;;;5023316;28;20113;-90
2022/09/10 03:36:52;;;;;;;24.45;15.30;;;15.50;99.90;;;;;;5030584;28;20041;-92
2022/09/10 03:39:17;;;;;;;22.00;14.40;;;15.50;99.90;;;;;;5012109;28;20021;-92
2022/09/10 03:41:47;;;;;;;25.50;14.73;;;15.50;99.90;;;;;;5033766;28;20041;-93
2022/09/10 03:44:12;;;;;;;19.10;13.30;;;15.50;99.90;;;;;;5022349;28;20028;-94
2022/09/10 03:46:38;;;;;;;25.00;15.25;;;15.50;99.90;;;;;;5014578;28;20646;-94
2022/09/10 03:49:04;;;;;;;22.30;14.38;;;15.60;99.90;;;;;;5015523;28;20125;-94
2022/09/10 03:51:30;;;;;;;23.08;14.23;;;15.60;99.90;;;;;;5023046;28;20485;-95
2022/09/10 03:53:58;;;;;;;22.25;13.88;;;15.60;99.90;;;;;;5030526;28;20036;-92
2022/09/10 03:56:23;;;;;;;23.40;14.20;;;15.60;99.90;;;;;;5011855;28;20057;-93
2022/09/10 03:58:49;;;;;;;23.90;14.32;;;15.60;99.90;;;;;;5008324;28;20074;-93
2022/09/10 04:01:16;;;;;;;20.92;14.20;;;15.60;99.90;;;;;;5028624;28;20037;-94
2022/09/10 04:03:42;;;;;;;21.30;14.25;;;15.60;99.90;;;;;;5023484;28;20493;-95
2022/09/10 04:06:11;;;;;;;21.02;13.73;;;15.70;99.90;;;;;;5031746;28;20041;-95
2022/09/10 04:08:38;;;;;;;21.30;14.43;;;15.60;99.90;;;;;;5012490;28;20033;-94
2022/09/10 04:11:04;;;;;;;19.02;13.30;;;15.70;99.90;;;;;;5023271;28;20045;-91
2022/09/10 04:13:33;;;;;;;21.40;14.35;;;15.60;99.90;;;;;;5021097;28;20017;-92
2022/09/10 04:15:59;;;;;;;18.92;13.85;;;15.60;99.90;;;;;;5031530;28;20498;-94
2022/09/10 04:18:26;;;;;;;20.83;13.63;;;15.70;99.90;;;;;;5025668;28;20104;-94
2022/09/10 04:20:52;;;;;;;21.33;14.13;;;15.70;99.90;;;;;;5024040;28;20036;-94
2022/09/10 04:23:18;;;;;;;18.60;13.98;;;15.70;99.90;;;;;;5031069;28;20029;-94
2022/09/10 04:25:45;;;;;;;22.45;15.07;;;15.70;99.90;;;;;;5025463;28;20029;-94
2022/09/10 04:28:11;;;;;;;20.48;14.30;;;15.70;99.90;;;;;;5021781;28;20057;-95
2022/09/10 04:30:39;;;;;;;20.60;14.18;;;15.70;99.90;;;;;;5018322;28;20028;-95
2022/09/10 04:33:05;;;;;;;20.55;14.93;;;15.70;99.90;;;;;;5013772;28;20029;-94
2022/09/10 04:35:31;;;;;;;21.38;15.15;;;15.70;99.90;;;;;;5022528;28;20029;-94
2022/09/10 04:37:56;;;;;;;20.92;14.68;;;15.70;99.90;;;;;;5028405;28;20033;-95
2022/09/10 04:40:22;;;;;;;21.45;15.90;;;15.80;99.90;;;;;;5016518;28;20033;-93
2022/09/10 04:42:48;;;;;;;20.80;15.45;;;15.80;99.90;;;;;;5023682;28;20029;-95
2022/09/10 04:45:13;;;;;;;20.30;14.82;;;15.80;99.90;;;;;;5034749;28;20022;-94
2022/09/10 04:47:39;;;;;;;21.30;14.88;;;15.80;99.90;;;;;;5014511;28;20050;-95
2022/09/10 04:50:05;;;;;;;22.58;16.33;;;15.80;99.90;;;;;;5017165;28;20030;-95
2022/09/10 04:52:32;;;;;;;20.08;15.73;;;15.80;99.90;;;;;;5001861;28;20053;-94
2022/09/10 04:54:58;;;;;;;21.05;14.90;;;15.80;99.90;;;;;;5005506;28;20029;-94
2022/09/10 04:57:24;;;;;;;17.83;14.90;;;15.80;99.90;;;;;;5015978;28;20032;-94
2022/09/10 04:59:52;;;;;;;20.17;15.13;;;15.80;99.90;;;;;;5014378;28;20022;-94
2022/09/10 05:02:18;;;;;;;20.75;15.63;;;15.80;99.90;;;;;;5022966;28;20507;-94
2022/09/10 05:04:43;;;;;;;21.05;14.30;;;15.80;99.90;;;;;;5022329;28;20022;-95
2022/09/10 05:07:09;;;;;;;21.45;14.60;;;15.80;99.90;;;;;;5020061;28;20049;-95
2022/09/10 05:09:34;;;;;;;20.63;15.18;;;15.80;99.90;;;;;;5015327;28;20473;-94
2022/09/10 05:12:01;;;;;;;21.58;16.13;;;15.80;99.90;;;;;;5025771;28;20025;-94
2022/09/10 05:14:28;;;;;;;21.50;14.75;;;15.80;99.90;;;;;;5012427;28;20022;-94
2022/09/10 05:16:54;;;;;;;21.40;16.23;;;15.80;99.90;;;;;;5034773;28;20093;-95
2022/09/10 05:19:20;;;;;;;23.25;17.10;;;15.80;99.90;;;;;;5021335;28;20044;-95
2022/09/10 05:21:47;;;;;;;22.92;15.82;;;15.80;99.90;;;;;;5019612;28;21101;-94
2022/09/10 05:24:13;;;;;;;24.30;16.88;;;15.80;99.90;;;;;;5003420;28;20026;-92
2022/09/10 05:26:39;;;;;;;23.42;16.55;;;15.80;99.90;;;;;;5015177;28;20152;-93
2022/09/10 05:29:05;;;;;;;22.48;15.32;;;15.80;99.90;;;;;;5011545;28;20021;-94
2022/09/10 05:31:31;;;;;;;24.52;16.02;;;15.80;99.90;;;;;;5006782;28;20494;-93
2022/09/10 05:33:59;;;;;;;24.50;15.80;;;15.70;99.90;;;;;;5025638;28;20029;-93
2022/09/10 05:36:30;;;;;;;23.92;16.63;;;15.70;99.90;;;;;;5012832;28;20037;-92
2022/09/10 05:38:58;;;;;;;21.25;15.00;;;15.70;99.90;;;;;;5027859;28;20021;-95
2022/09/10 05:41:24;;;;;;;25.60;15.65;;;15.70;99.90;;;;;;5030734;28;20033;-94
2022/09/10 05:43:50;;;;;;;19.73;15.10;;;15.70;99.90;;;;;;5014324;28;20513;-92
2022/09/10 05:46:16;;;;;;;22.15;16.35;;;15.70;99.90;;;;;;5014644;28;20045;-93
2022/09/10 05:48:41;;;;;;;23.67;16.23;;;15.60;99.90;;;;;;5034284;28;20022;-94
2022/09/10 05:51:07;;;;;;;22.98;16.02;;;15.70;99.90;;;;;;5016391;28;20111;-94
2022/09/10 05:53:34;;;;;;;22.83;16.33;;;15.70;99.90;;;;;;5013533;28;20114;-94
2022/09/10 05:55:59;;;;;;;23.60;16.35;;;15.70;99.90;;;;;;4998056;28;20457;-94
2022/09/10 05:58:26;;;;;;;22.92;16.13;;;15.70;99.90;;;;;;5035464;28;20060;-93
2022/09/10 06:00:53;;;;;;;28.10;17.42;;;15.70;99.90;;;;;;5016676;28;20049;-92
2022/09/10 06:03:19;;;;;;;24.58;16.27;;;15.70;99.90;;;;;;5011699;28;20026;-93
2022/09/10 06:05:52;;;;;;;22.17;15.80;;;15.70;99.90;;;;;;5023961;28;20022;-92
2022/09/10 06:08:21;;;;;;;24.75;15.20;;;15.70;99.90;;;;;;5008443;28;20992;-94
2022/09/10 06:11:13;;;;;;;24.27;16.90;;;15.70;99.90;;;;;;5028937;28;20037;-93
2022/09/10 06:13:41;;;;;;;23.63;16.20;;;15.80;99.90;;;;;;5009532;28;20416;-94
2022/09/10 06:16:06;;;;;;;25.63;17.73;;;15.80;99.90;;;;;;5012099;28;20029;-94
2022/09/10 06:18:32;;;;;;;25.95;17.30;;;15.70;99.90;;;;;;5018874;28;20032;-94
2022/09/10 06:21:05;;;;;;;27.05;17.35;;;15.70;99.90;;;;;;5017029;28;20034;-93
2022/09/10 06:23:31;;;;;;;22.88;16.75;;;15.80;99.90;;;;;;5020500;28;20064;-94
2022/09/10 06:26:24;;;;;;;27.58;18.63;;;15.80;99.90;;;;;;5034149;28;20029;-94
2022/09/10 06:28:50;;;;;;;31.95;18.55;;;15.90;99.90;;;;;;5004220;28;20059;-94
2022/09/10 06:31:16;;;;;;;28.00;18.25;;;15.80;99.90;;;;;;5022385;28;20013;-95
2022/09/10 06:33:43;;;;;;;26.67;19.65;;;15.90;99.90;;;;;;5013399;28;20060;-93
2022/09/10 06:36:10;;;;;;;30.13;19.00;;;15.90;99.90;;;;;;5016010;28;20026;-94
2022/09/10 06:38:35;;;;;;;29.05;18.20;;;15.90;99.90;;;;;;5019772;28;20505;-94
2022/09/10 06:41:04;;;;;;;28.35;20.77;;;15.90;99.90;;;;;;5033035;28;20038;-94
2022/09/10 06:43:38;;;;;;;29.13;19.52;;;16.00;99.90;;;;;;5020974;28;20072;-94
2022/09/10 06:46:14;;;;;;;28.02;18.17;;;16.00;99.90;;;;;;5030445;28;20046;-94
2022/09/10 06:48:41;;;;;;;27.17;19.33;;;16.00;99.90;;;;;;5020477;28;20508;-94
2022/09/10 06:51:08;;;;;;;27.05;18.30;;;16.00;99.90;;;;;;5008865;28;20048;-94
2022/09/10 06:53:34;;;;;;;28.20;18.75;;;16.10;99.90;;;;;;5029220;28;20022;-95
2022/09/10 06:56:01;;;;;;;29.10;18.90;;;16.10;99.90;;;;;;5011410;28;20022;-94
2022/09/10 06:58:30;;;;;;;27.67;19.02;;;16.20;99.90;;;;;;5014894;28;20026;-94
2022/09/10 07:00:56;;;;;;;28.10;19.77;;;16.20;99.90;;;;;;5007738;28;20125;-93
2022/09/10 07:03:22;;;;;;;30.10;18.98;;;16.20;99.90;;;;;;5015646;28;20050;-94
2022/09/10 07:05:47;;;;;;;25.63;18.10;;;16.30;99.90;;;;;;5014530;28;20029;-94
2022/09/10 07:08:16;;;;;;;24.33;18.50;;;16.40;99.90;;;;;;5017901;28;20029;-94
2022/09/10 07:10:43;;;;;;;24.33;18.33;;;16.40;99.90;;;;;;5036147;28;20021;-95
2022/09/10 07:13:11;;;;;;;25.83;19.48;;;16.50;99.90;;;;;;5013929;28;20021;-93
2022/09/10 07:15:45;;;;;;;25.98;18.85;;;16.50;99.90;;;;;;5012313;28;20026;-93
2022/09/10 07:18:15;;;;;;;27.38;19.65;;;16.60;99.90;;;;;;5026406;28;20069;-94
2022/09/10 07:20:42;;;;;;;24.77;19.50;;;16.70;99.90;;;;;;5024349;28;20056;-94
2022/09/10 07:23:08;;;;;;;24.70;18.67;;;16.80;99.90;;;;;;5018352;28;20113;-94
2022/09/10 07:25:33;;;;;;;25.42;18.20;;;16.90;99.90;;;;;;5015577;28;20367;-94
2022/09/10 07:28:00;;;;;;;21.70;17.10;;;17.00;99.90;;;;;;5015392;28;20087;-95
2022/09/10 07:30:28;;;;;;;22.63;18.10;;;17.00;99.90;;;;;;5033606;28;20033;-94
2022/09/10 07:32:53;;;;;;;23.67;18.10;;;16.90;99.90;;;;;;5018853;28;20022;-93
2022/09/10 07:35:20;;;;;;;21.92;18.02;;;16.90;99.90;;;;;;5023042;28;20119;-96
2022/09/10 07:37:45;;;;;;;22.63;17.85;;;16.90;99.90;;;;;;5026986;28;20016;-95
2022/09/10 07:40:12;;;;;;;23.02;18.25;;;16.80;99.90;;;;;;5017243;28;20034;-96
2022/09/10 07:42:38;;;;;;;23.00;18.60;;;16.80;99.90;;;;;;5034973;28;20179;-94
2022/09/10 07:45:04;;;;;;;24.85;18.63;;;16.70;99.90;;;;;;5017290;28;20112;-92
2022/09/10 07:47:32;;;;;;;21.13;18.45;;;16.70;99.90;;;;;;5010225;28;20050;-94
2022/09/10 07:49:58;;;;;;;20.45;17.67;;;16.70;99.90;;;;;;5022562;28;20032;-93
2022/09/10 07:52:24;;;;;;;22.48;19.30;;;16.70;99.90;;;;;;5001609;28;20028;-93
2022/09/10 07:54:49;;;;;;;22.38;18.65;;;16.70;99.90;;;;;;5017242;28;20033;-93
2022/09/10 07:57:15;;;;;;;20.80;18.30;;;16.80;99.90;;;;;;5029863;28;20044;-93
2022/09/10 07:59:41;;;;;;;20.45;18.02;;;16.80;99.90;;;;;;5013025;28;20057;-95
2022/09/10 08:02:11;;;;;;;20.45;18.23;;;16.90;99.90;;;;;;5015889;28;20083;-93
2022/09/10 08:04:36;;;;;;;21.80;17.95;;;17.00;99.90;;;;;;5033748;28;20025;-92
2022/09/10 08:07:02;;;;;;;21.00;18.40;;;17.00;99.90;;;;;;5015926;28;20088;-93
2022/09/10 08:09:27;;;;;;;22.70;17.88;;;17.10;99.90;;;;;;5010268;28;20428;-93
2022/09/10 08:11:53;;;;;;;23.98;18.67;;;17.10;99.90;;;;;;5018749;28;20029;-92
2022/09/10 08:14:18;;;;;;;21.58;19.33;;;17.10;99.90;;;;;;5012570;28;20022;-92
2022/09/10 08:16:44;;;;;;;24.40;21.33;;;17.10;99.90;;;;;;5031952;28;20029;-93
2022/09/10 08:19:10;;;;;;;25.33;20.38;;;17.20;99.90;;;;;;5017754;28;20480;-93
2022/09/10 08:21:35;;;;;;;24.63;20.48;;;17.30;99.90;;;;;;5018425;28;20041;-94
2022/09/10 08:24:02;;;;;;;24.13;21.38;;;17.50;99.90;;;;;;5018045;28;20029;-95
2022/09/10 08:26:28;;;;;;;24.92;22.20;;;17.70;99.90;;;;;;5008325;28;20036;-95
2022/09/10 08:28:56;;;;;;;25.80;22.52;;;17.70;99.90;;;;;;5007782;28;20014;-95
2022/09/10 08:31:23;;;;;;;27.35;23.30;;;17.80;99.90;;;;;;5011466;28;20033;-94
2022/09/10 08:33:51;;;;;;;24.98;22.15;;;17.90;99.90;;;;;;5027572;28;20028;-95
2022/09/10 08:36:18;;;;;;;26.40;23.05;;;18.00;99.90;;;;;;5014139;28;20026;-95
2022/09/10 08:38:44;;;;;;;25.85;22.20;;;18.00;99.90;;;;;;5020773;28;20547;-94
2022/09/10 08:41:37;;;;;;;23.35;20.77;;;18.00;99.90;;;;;;5015249;28;20041;-94
2022/09/10 08:44:08;;;;;;;23.52;20.75;;;18.00;99.90;;;;;;4998251;28;20029;-94
2022/09/10 08:47:05;;;;;;;22.70;20.25;;;18.00;99.90;;;;;;5027804;28;20128;-92
2022/09/10 08:49:42;;;;;;;22.20;20.00;;;18.00;99.90;;;;;;5032599;28;20025;-93
2022/09/10 08:52:28;;;;;;;22.50;20.20;;;18.10;99.90;;;;;;5023661;28;20120;-93
2022/09/10 08:55:03;;;;;;;23.48;19.60;;;18.00;99.90;;;;;;5013174;28;20022;-93
2022/09/10 08:57:37;;;;;;;22.35;20.08;;;18.00;99.90;;;;;;5013207;28;20436;-93
2022/09/10 09:00:05;;;;;;;21.48;19.38;;;18.00;99.90;;;;;;5009821;28;20040;-93
2022/09/10 09:02:34;;;;;;;24.30;20.33;;;18.00;99.90;;;;;;5016520;28;20053;-94
2022/09/10 09:05:13;;;;;;;22.60;20.20;;;18.00;99.90;;;;;;5026562;28;20096;-94
2022/09/10 09:07:39;;;;;;;25.45;21.08;;;18.00;99.90;;;;;;5018349;28;20068;-93
2022/09/10 09:10:18;;;;;;;21.23;18.13;;;18.10;99.90;;;;;;5012925;28;20018;-93
2022/09/10 09:12:51;;;;;;;24.65;19.55;;;18.30;99.90;;;;;;4999858;28;20120;-93
2022/09/10 09:15:30;;;;;;;19.75;17.77;;;18.40;99.90;;;;;;5010065;28;20073;-94
2022/09/10 09:18:16;;;;;;;21.80;18.67;;;18.50;99.90;;;;;;5026065;28;20049;-93
2022/09/10 09:20:48;;;;;;;19.45;17.33;;;18.60;99.90;;;;;;5026057;28;20041;-93
2022/09/10 09:23:21;;;;;;;18.23;15.98;;;18.70;99.90;;;;;;5029241;28;20124;-93
2022/09/10 09:25:49;;;;;;;19.35;16.02;;;18.70;99.90;;;;;;5028473;28;20456;-94
2022/09/10 09:28:27;;;;;;;16.63;14.90;;;18.60;99.90;;;;;;5021054;28;20050;-93
2022/09/10 09:30:56;;;;;;;16.25;14.50;;;18.70;99.90;;;;;;5013016;28;20021;-94
2022/09/10 09:33:23;;;;;;;15.70;11.20;;;18.70;99.90;;;;;;5016628;28;20029;-95
2022/09/10 09:36:01;;;;;;;15.88;10.40;;;18.80;99.90;;;;;;5018520;28;20075;-93
2022/09/10 09:38:41;;;;;;;10.18;8.88;;;18.90;99.90;;;;;;5019009;28;20033;-93
2022/09/10 09:41:20;;;;;;;10.02;8.93;;;19.00;99.90;;;;;;5015511;28;20041;-93
2022/09/10 09:44:02;;;;;;;13.43;8.27;;;19.00;99.90;;;;;;5020549;28;20072;-95
2022/09/10 09:46:27;;;;;;;12.88;8.45;;;19.20;99.90;;;;;;5008230;28;20057;-94
2022/09/10 09:48:57;;;;;;;10.52;7.57;;;19.30;99.90;;;;;;5012898;28;20389;-93
2022/09/10 09:51:24;;;;;;;9.73;7.88;;;19.40;99.90;;;;;;5004748;28;20104;-94
2022/09/10 09:53:53;;;;;;;9.82;7.05;;;19.40;99.90;;;;;;5018259;28;20104;-95
2022/09/10 09:56:26;;;;;;;6.32;4.40;;;19.30;99.90;;;;;;5034016;28;20022;-95
2022/09/10 09:58:52;;;;;;;6.05;5.22;;;19.20;99.90;;;;;;5011135;28;20014;-92
2022/09/10 10:01:21;;;;;;;8.55;5.68;;;19.10;99.90;;;;;;5019800;28;20041;-93
2022/09/10 10:03:51;;;;;;;7.63;5.90;;;19.00;99.90;;;;;;5023918;28;20029;-92
2022/09/10 10:06:23;;;;;;;6.72;4.53;;;18.80;99.90;;;;;;5003825;28;20026;-93
2022/09/10 10:08:55;;;;;;;;;;;18.80;99.90;;;;;;5020037;28;20026;-92
2022/09/10 10:11:21;;;;;;;8.13;4.40;;;18.60;99.90;;;;;;5019857;28;20400;-92
2022/09/10 10:13:50;;;;;;;6.25;3.90;;;18.50;99.90;;;;;;5031638;28;20077;-94
2022/09/10 10:16:21;;;;;;;7.32;3.55;;;18.40;99.90;;;;;;5038872;28;20048;-94
2022/09/10 10:18:47;;;;;;;4.93;2.90;;;18.30;99.90;;;;;;5021503;28;20095;-94
2022/09/10 10:21:18;;;;;;;7.28;3.30;;;18.20;99.90;;;;;;5018412;28;20033;-91
2022/09/10 10:23:44;;;;;;;7.30;3.50;;;18.10;99.90;;;;;;5007092;28;20123;-91
2022/09/10 10:26:19;;;;;;;12.05;4.13;;;17.90;99.90;;;;;;5012882;28;20485;-91
2022/09/10 10:28:47;;;;;;;8.85;4.68;;;17.90;99.90;;;;;;5005571;28;20084;-91
2022/09/10 10:31:13;;;;;;;9.77;5.30;;;17.80;99.90;;;;;;5031786;28;20025;-90
2022/09/10 10:34:06;;;;;;;12.00;6.00;;;17.70;99.90;;;;;;5018061;28;20041;-89
2022/09/10 10:37:02;;;;;;;8.27;5.57;;;17.70;99.90;;;;;;5012576;28;20029;-90
2022/09/10 10:39:54;;;;;;;10.93;6.72;;;17.70;99.90;;;;;;5026477;28;20032;-88
2022/09/10 10:42:38;;;;;;;6.30;5.68;;;17.60;99.90;;;;;;5007823;28;20128;-91
2022/09/10 10:45:17;;;;;;;9.55;6.35;;;17.60;99.90;;;;;;5016965;28;20030;-89
2022/09/10 10:48:02;;;;;;;10.57;6.90;;;17.70;99.90;;;;;;5031680;28;20137;-88
2022/09/10 10:50:54;;;;;;;15.48;7.13;;;17.60;99.90;;;;;;5029926;28;20034;-88
2022/09/10 10:53:35;;;;;;;10.38;7.20;;;17.60;99.90;;;;;;5013389;28;20033;-89
2022/09/10 10:56:24;;;;;;;12.15;7.47;;;17.60;99.90;;;;;;5034693;28;20013;-92
2022/09/10 10:59:00;;;;;;;11.20;7.57;;;17.50;99.90;;;;;;5027039;28;20189;-92
2022/09/10 11:01:30;;;;;;;10.63;7.18;;;17.50;99.90;;;;;;5036326;28;20076;-91
2022/09/10 11:04:21;;;;;;;12.45;7.53;;;17.50;99.90;;;;;;5014719;28;20024;-91
2022/09/10 11:07:20;;;;;;;14.02;7.80;;;17.40;99.90;;;;;;5031721;28;20052;-91
2022/09/10 11:10:00;;;;;;;12.07;8.20;;;17.40;99.90;;;;;;5027028;28;20065;-91
2022/09/10 11:12:31;;;;;;;13.55;9.63;;;17.40;99.90;;;;;;5031277;28;20018;-90
2022/09/10 11:15:04;;;;;;;12.65;7.97;;;17.40;99.90;;;;;;5025076;28;20029;-91
2022/09/10 11:17:43;;;;;;;11.65;9.27;;;17.50;99.90;;;;;;5016157;28;20075;-91
2022/09/10 11:20:28;;;;;;;15.18;9.30;;;17.60;99.90;;;;;;5018278;28;20057;-91
2022/09/10 11:23:26;;;;;;;16.92;11.10;;;17.60;99.90;;;;;;5031504;28;20033;-92
2022/09/10 11:25:59;;;;;;;22.20;13.00;;;17.60;99.90;;;;;;5014743;28;20041;-92
2022/09/10 11:28:51;;;;;;;20.17;14.80;;;17.60;99.90;;;;;;5013192;28;20101;-92
2022/09/10 11:31:29;;;;;;;24.70;15.93;;;17.70;99.90;;;;;;5016980;28;20504;-92
2022/09/10 11:34:00;;;;;;;21.55;16.08;;;17.70;99.90;;;;;;5020144;28;20022;-91
2022/09/10 11:36:38;;;;;;;22.33;17.90;;;17.70;99.90;;;;;;5017887;28;20469;-92
2022/09/10 11:39:42;;;;;;;23.13;17.65;;;17.80;99.90;;;;;;5016930;28;20477;-91
2022/09/10 11:42:38;;;;;;;25.23;18.88;;;17.90;99.90;;;;;;5017560;28;20068;-91
2022/09/10 11:45:24;;;;;;;28.25;21.05;;;18.10;99.90;;;;;;5023896;28;20114;-93
2022/09/10 11:48:13;;;;;;;29.23;22.50;;;18.20;99.90;;;;;;5005071;28;20394;-92
2022/09/10 11:50:44;;;;;;;28.48;23.77;;;18.40;99.90;;;;;;5007117;28;20042;-91
2022/09/10 11:53:14;;;;;;;31.50;25.63;;;18.50;99.90;;;;;;5005233;28;20100;-91
2022/09/10 11:55:57;;;;;;;29.58;23.35;;;18.70;99.90;;;;;;5013013;28;20019;-91
2022/09/10 11:58:50;;;;;;;26.17;23.38;;;18.90;99.90;;;;;;4989247;28;20029;-92
2022/09/10 12:01:38;;;;;;;29.23;24.17;;;19.00;99.90;;;;;;5004344;28;20519;-90
2022/09/10 12:04:10;;;;;;;28.83;24.10;;;19.20;99.90;;;;;;5006679;28;20081;-91
2022/09/10 12:06:56;;;;;;;25.88;22.27;;;19.40;99.90;;;;;;5007129;28;20033;-89
2022/09/10 12:09:31;;;;;;;26.20;21.73;;;19.40;99.90;;;;;;5010811;28;20030;-90
2022/09/10 12:12:19;;;;;;;25.58;21.98;;;19.40;99.90;;;;;;4986166;28;20030;-92
2022/09/10 12:14:44;;;;;;;25.30;21.38;;;19.50;99.90;;;;;;4973872;28;20030;-91
2022/09/10 12:17:28;;;;;;;22.58;18.02;;;19.40;99.90;;;;;;4985065;28;20034;-92
2022/09/10 12:19:56;;;;;;;24.45;19.48;;;19.40;99.90;;;;;;5002120;28;20390;-92
2022/09/10 12:22:26;;;;;;;20.83;17.98;;;19.40;99.90;;;;;;5005150;28;20039;-91
2022/09/10 12:24:55;;;;;;;20.88;18.48;;;19.40;99.90;;;;;;5003674;28;20030;-92
2022/09/10 12:27:51;;;;;;;18.40;16.42;;;19.40;99.90;;;;;;5003946;28;20034;-92
2022/09/10 12:30:29;;;;;;;18.50;16.23;;;19.50;99.90;;;;;;4996498;28;20517;-91
2022/09/10 12:33:00;;;;;;;20.00;16.83;;;19.40;99.90;;;;;;5014103;28;20042;-92
2022/09/10 12:35:29;;;;;;;22.63;16.77;;;19.50;99.90;;;;;;5013608;28;20030;-92
2022/09/10 12:38:32;;;;;;;19.13;15.48;;;19.50;99.90;;;;;;5011505;28;20061;-93
2022/09/10 12:41:02;;;;;;;13.75;12.27;;;19.50;99.90;;;;;;5009962;28;20112;-93
2022/09/10 12:43:40;;;;;;;15.65;11.85;;;19.50;99.90;;;;;;5005875;28;20041;-92
2022/09/10 12:46:15;;;;;;;12.10;10.55;;;19.60;99.90;;;;;;5004440;28;20494;-91
2022/09/10 12:49:04;;;;;;;10.25;9.05;;;19.80;99.90;;;;;;5015998;28;20033;-92
2022/09/10 12:51:43;;;;;;;10.88;9.75;;;19.90;99.90;;;;;;5026624;28;20018;-93